createdAt,value
2022-08-09T00:00:23.896Z,8.13
2022-08-09T00:06:19.654Z,9.33
2022-08-09T00:10:41.797Z,9.73
2022-08-09T00:15:59.111Z,9.73
2022-08-09T00:20:59.614Z,7.73
2022-08-09T00:25:57.908Z,9.03
2022-08-09T00:30:58.398Z,7.33
2022-08-09T00:35:58.818Z,5.50
2022-08-09T00:40:58.108Z,6.83
2022-08-09T00:45:57.986Z,7.83
2022-08-09T00:50:56.625Z,6.13
2022-08-09T00:56:05.226Z,6.70
2022-08-09T01:01:16.217Z,7.30
2022-08-09T01:06:22.021Z,4.70
2022-08-09T01:11:34.733Z,4.10
2022-08-09T01:16:47.503Z,4.07
2022-08-09T01:21:53.771Z,3.80
2022-08-09T01:27:01.822Z,7.73
2022-08-09T01:32:31.068Z,7.40
2022-08-09T01:38:05.713Z,9.00
2022-08-09T01:42:44.670Z,12.50
2022-08-09T01:47:44.720Z,8.30
2022-08-09T01:52:44.745Z,9.67
2022-08-09T01:57:52.910Z,8.53
2022-08-09T02:02:53.108Z,11.20
2022-08-09T02:08:40.051Z,5.70
2022-08-09T02:13:17.639Z,9.93
2022-08-09T02:18:24.444Z,8.40
2022-08-09T02:23:32.066Z,9.43
2022-08-09T02:28:44.127Z,14.90
2022-08-09T02:34:06.560Z,14.77
2022-08-09T02:39:07.430Z,10.70
2022-08-09T02:44:30.194Z,7.83
2022-08-09T02:49:38.788Z,13.00
2022-08-09T02:54:54.092Z,14.60
2022-08-09T03:00:21.407Z,11.30
2022-08-09T03:05:16.670Z,11.40
2022-08-09T03:10:16.598Z,11.80
2022-08-09T03:15:16.640Z,9.40
2022-08-09T03:20:16.359Z,11.83
2022-08-09T03:25:26.748Z,12.60
2022-08-09T03:30:36.662Z,10.97
2022-08-09T03:36:13.892Z,9.43
2022-08-09T03:40:54.187Z,9.00
2022-08-09T03:46:04.164Z,12.03
2022-08-09T03:51:54.123Z,10.50
2022-08-09T03:56:32.644Z,12.63
2022-08-09T04:01:35.342Z,12.63
2022-08-09T04:06:33.766Z,12.33
2022-08-09T04:11:48.667Z,11.33
2022-08-09T04:16:50.078Z,13.20
2022-08-09T04:21:48.262Z,12.70
2022-08-09T04:26:46.583Z,8.33
2022-08-09T04:31:47.384Z,12.80
2022-08-09T04:36:50.446Z,13.20
2022-08-09T04:41:48.740Z,13.23
2022-08-09T04:46:58.079Z,21.10
2022-08-09T04:52:00.072Z,17.53
2022-08-09T04:56:59.121Z,24.57
2022-08-09T05:01:57.322Z,20.37
2022-08-09T05:06:55.979Z,15.10
2022-08-09T05:11:57.675Z,19.93
2022-08-09T05:16:59.884Z,25.43
2022-08-09T05:21:58.081Z,27.20
2022-08-09T05:26:57.669Z,13.10
2022-08-09T05:32:00.130Z,15.43
2022-08-09T05:36:58.453Z,23.67
2022-08-09T05:42:04.561Z,11.33
2022-08-09T05:47:05.460Z,34.87
2022-08-09T05:52:04.509Z,17.57
2022-08-09T05:57:04.431Z,14.50
2022-08-09T06:02:04.732Z,12.73
2022-08-09T06:07:03.087Z,18.13
2022-08-09T06:12:01.444Z,5.30
2022-08-09T06:17:00.956Z,9.83
2022-08-09T06:22:15.220Z,8.83
2022-08-09T06:27:15.824Z,8.07
2022-08-09T06:32:53.311Z,4.00
2022-08-09T06:37:52.792Z,19.57
2022-08-09T06:42:51.978Z,6.43
2022-08-09T06:48:00.524Z,9.83
2022-08-09T06:53:00.798Z,14.37
2022-08-09T06:58:02.867Z,4.97
2022-08-09T07:03:06.150Z,5.83
2022-08-09T07:08:04.702Z,7.17
2022-08-09T07:13:18.698Z,6.70
2022-08-09T07:18:22.503Z,2.50
2022-08-09T07:23:20.838Z,5.70
2022-08-09T07:28:26.380Z,3.60
2022-08-09T07:33:27.881Z,4.77
2022-08-09T07:38:53.950Z,2.40
2022-08-09T07:43:56.786Z,3.30
2022-08-09T07:48:58.883Z,10.37
2022-08-09T07:54:07.515Z,3.13
2022-08-09T07:59:16.085Z,3.20
2022-08-09T08:04:32.135Z,2.73
2022-08-09T08:09:41.118Z,2.67
2022-08-09T08:14:44.327Z,2.93
2022-08-09T08:19:45.113Z,2.63
2022-08-09T08:24:49.025Z,2.70
2022-08-09T08:29:50.384Z,2.33
2022-08-09T08:34:52.137Z,2.37
2022-08-09T08:39:54.400Z,1.87
2022-08-09T08:44:57.392Z,1.93
2022-08-09T08:50:02.825Z,2.10
2022-08-09T08:55:04.094Z,2.10
2022-08-09T09:00:12.885Z,1.90
2022-08-09T09:05:26.247Z,1.80
2022-08-09T09:10:44.927Z,1.90
2022-08-09T09:15:49.193Z,2.33
2022-08-09T09:20:48.948Z,1.67
2022-08-09T09:26:03.556Z,1.90
2022-08-09T09:31:05.838Z,2.40
2022-08-09T09:36:20.333Z,1.60
2022-08-09T09:41:33.391Z,2.17
2022-08-09T09:46:42.621Z,1.80
2022-08-09T09:51:43.283Z,1.80
2022-08-09T09:58:00.168Z,2.20
2022-08-09T10:02:06.517Z,2.77
2022-08-09T10:07:24.046Z,1.90
2022-08-09T10:12:29.668Z,2.33
2022-08-09T10:17:50.681Z,1.97
2022-08-09T10:23:00.452Z,2.07
2022-08-09T10:27:59.050Z,2.30
2022-08-09T10:32:58.030Z,7.10
2022-08-09T10:38:01.273Z,2.20
2022-08-09T10:43:01.621Z,2.43
2022-08-09T10:48:26.074Z,2.70
2022-08-09T10:53:46.945Z,2.60
2022-08-09T10:58:54.097Z,4.20
2022-08-09T11:04:27.742Z,2.40
2022-08-09T11:09:52.572Z,2.97
2022-08-09T11:14:55.811Z,3.70
2022-08-09T11:20:10.080Z,3.00
2022-08-09T11:25:14.568Z,3.47
2022-08-09T11:30:32.509Z,2.90
2022-08-09T11:35:49.345Z,3.73
2022-08-09T11:40:52.975Z,4.40
2022-08-09T11:45:57.841Z,2.70
2022-08-09T11:52:49.983Z,4.40
2022-08-09T11:56:41.455Z,7.90
2022-08-09T12:08:34.577Z,3.53
2022-08-09T12:14:09.378Z,3.20
2022-08-09T12:18:55.362Z,4.03
2022-08-09T12:24:06.500Z,2.90
2022-08-09T12:29:29.483Z,4.13
2022-08-09T12:34:34.088Z,7.47
2022-08-09T12:39:32.477Z,4.37
2022-08-09T12:44:38.968Z,3.90
2022-08-09T12:49:40.507Z,3.50
2022-08-09T12:55:03.045Z,5.70
2022-08-09T13:00:25.188Z,3.77
2022-08-09T13:05:25.672Z,32.67
2022-08-09T13:10:23.887Z,4.10
2022-08-09T13:15:34.246Z,10.07
2022-08-09T13:20:37.969Z,4.20
2022-08-09T13:25:56.018Z,4.27
2022-08-09T13:32:15.468Z,4.50
2022-08-09T13:36:41.032Z,3.60
2022-08-09T13:41:57.273Z,5.77
2022-08-09T13:47:25.551Z,9.83
2022-08-09T13:52:19.113Z,4.00
2022-08-09T13:57:35.346Z,4.30
2022-08-09T14:02:42.469Z,5.30
2022-08-09T14:08:01.445Z,8.53
2022-08-09T14:13:01.870Z,6.37
2022-08-09T14:18:16.724Z,6.17
2022-08-09T14:23:20.258Z,4.23
2022-08-09T14:28:36.683Z,3.60
2022-08-09T14:33:38.366Z,3.70
2022-08-09T14:38:36.813Z,3.50
2022-08-09T14:43:47.079Z,4.30
2022-08-09T14:48:52.672Z,4.23
2022-08-09T14:53:52.510Z,3.60
2022-08-09T14:58:51.018Z,4.87
2022-08-09T15:03:55.924Z,2.80
2022-08-09T15:08:56.600Z,4.50
2022-08-09T15:14:04.389Z,2.73
2022-08-09T15:19:16.131Z,2.70
2022-08-09T15:24:24.194Z,2.87
2022-08-09T15:30:48.535Z,2.97
2022-08-09T15:34:45.233Z,3.13
2022-08-09T15:39:53.157Z,2.20
2022-08-09T15:44:52.203Z,2.53
2022-08-09T15:50:03.915Z,2.30
2022-08-09T15:55:02.959Z,2.13
2022-08-09T16:00:01.160Z,2.40
2022-08-09T16:05:04.048Z,2.80
2022-08-09T16:10:05.146Z,2.00
2022-08-09T16:15:04.907Z,2.00
2022-08-09T16:20:30.296Z,2.00
2022-08-09T16:25:37.058Z,1.83
2022-08-09T16:30:38.589Z,1.93
2022-08-09T16:35:56.148Z,1.73
2022-08-09T16:40:58.193Z,2.17
2022-08-09T16:45:56.745Z,1.73
2022-08-09T16:50:59.770Z,1.80
2022-08-09T16:56:10.306Z,2.03
2022-08-09T17:01:09.180Z,1.87
2022-08-09T17:06:31.319Z,1.70
2022-08-09T17:11:41.278Z,4.33
2022-08-09T17:16:40.253Z,1.70
2022-08-09T17:21:39.802Z,2.20
2022-08-09T17:26:38.617Z,1.50
2022-08-09T17:31:38.975Z,1.70
2022-08-09T17:36:40.063Z,2.13
2022-08-09T17:41:51.411Z,2.00
2022-08-09T17:46:55.583Z,3.33
2022-08-09T17:51:57.485Z,1.90
2022-08-09T17:56:56.343Z,2.03
2022-08-09T18:02:07.669Z,2.07
2022-08-09T18:07:23.193Z,2.13
2022-08-09T18:12:21.908Z,1.80
2022-08-09T18:18:01.929Z,2.00
2022-08-09T18:22:59.814Z,1.80
2022-08-09T18:28:19.020Z,1.80
2022-08-09T18:33:23.267Z,2.10
2022-08-09T18:38:22.902Z,1.90
2022-08-09T18:43:25.785Z,2.47
2022-08-09T18:48:25.518Z,2.73
2022-08-09T18:53:43.417Z,2.20
2022-08-09T18:58:55.378Z,2.00
2022-08-09T19:04:06.068Z,2.23
2022-08-09T19:09:09.038Z,2.37
2022-08-09T19:14:29.148Z,2.83
2022-08-09T19:19:28.395Z,2.23
2022-08-09T19:25:11.598Z,3.30
2022-08-09T19:30:23.041Z,2.30
2022-08-09T19:35:18.005Z,2.60
2022-08-09T19:40:19.361Z,2.50
2022-08-09T19:45:18.564Z,2.50
2022-08-09T19:50:51.006Z,2.43
2022-08-09T19:56:02.955Z,2.30
2022-08-09T20:00:55.028Z,3.00
2022-08-09T20:05:53.461Z,2.77
2022-08-09T20:10:53.305Z,3.27
2022-08-09T20:16:38.492Z,3.00
2022-08-09T20:21:09.793Z,3.33
2022-08-09T20:26:13.210Z,3.50
2022-08-09T20:31:13.865Z,2.53
2022-08-09T20:36:14.015Z,2.43
2022-08-09T20:41:13.620Z,2.50
2022-08-09T20:46:33.556Z,3.07
2022-08-09T20:51:30.079Z,2.50
2022-08-09T20:56:41.065Z,3.30
2022-08-09T21:01:51.433Z,2.50
2022-08-09T21:06:51.706Z,3.63
2022-08-09T21:18:23.906Z,3.07
2022-08-09T21:22:38.009Z,4.20
2022-08-09T21:27:52.427Z,3.93
2022-08-09T21:32:51.839Z,4.30
2022-08-09T21:37:59.405Z,4.43
2022-08-09T21:43:00.716Z,2.50
2022-08-09T21:47:59.389Z,5.73
2022-08-09T21:52:57.675Z,2.93
2022-08-09T21:57:58.942Z,5.13
2022-08-09T22:03:01.057Z,4.20
2022-08-09T22:07:59.338Z,2.90
2022-08-09T22:12:59.686Z,5.63
2022-08-09T22:18:12.175Z,3.63
2022-08-09T22:23:13.461Z,5.40
2022-08-09T22:28:12.536Z,5.00
2022-08-09T22:33:12.090Z,7.00
2022-08-09T22:38:15.508Z,4.77
2022-08-09T22:43:16.243Z,9.03
2022-08-09T22:48:35.919Z,4.40
2022-08-09T22:53:58.101Z,4.73
2022-08-09T22:58:53.112Z,4.83
2022-08-09T23:04:06.000Z,4.83
2022-08-09T23:09:07.153Z,4.10
2022-08-09T23:14:10.273Z,6.30
2022-08-09T23:19:17.142Z,6.07
2022-08-09T23:24:15.287Z,5.60
2022-08-09T23:29:13.882Z,4.13
2022-08-09T23:34:12.426Z,7.90
2022-08-09T23:39:13.700Z,5.57
2022-08-09T23:44:11.919Z,8.33
2022-08-09T23:49:11.403Z,5.23
2022-08-09T23:54:09.729Z,6.80
2022-08-09T23:59:09.304Z,7.40
